Time;durP1;ratioP1;P1;durP2;ratioP2;P2;SDS_P1;SDS_P2;PMS_P1;PMS_P2;Temp;Humidity;BMP_temperature;BMP_pressure;BME280_temperature;BME280_humidity;BME280_pressure;Samples;Min_cycle;Max_cycle;Signal;HPM_P1;HPM_P2
2021/01/03 00:01:19;;;;;;;2.80;2.50;;;;;;;;;;4835054;29;20214;-93
2021/01/03 00:06:59;;;;;;;2.65;2.40;;;;;;;;;;4785246;29;20222;-92
2021/01/03 00:10:26;;;;;;;3.20;2.90;;;;;;;;;;4834727;29;20190;-93
2021/01/03 00:12:57;;;;;;;4.45;3.15;;;;;;;;;;4827526;29;20246;-93
2021/01/03 00:15:25;;;;;;;3.25;2.95;;;;;;;;;;4835439;29;20250;-94
2021/01/03 00:17:52;;;;;;;4.28;3.78;;;;;;;;;;4833315;29;20277;-90
2021/01/03 00:20:25;;;;;;;3.38;2.88;;;;;;;;;;4838570;29;20231;-93
2021/01/03 00:22:53;;;;;;;2.90;2.70;;;;;;;;;;4837386;29;20241;-92
2021/01/03 00:25:26;;;;;;;3.65;2.90;;;;;;;;;;4828142;29;20214;-93
2021/01/03 00:27:57;;;;;;;4.57;3.15;;;;;;;;;;4830931;29;20261;-93
2021/01/03 00:30:48;;;;;;;;;;;;;;;;;;;;;
2021/01/03 00:33:39;;;;;;;3.28;2.97;;;;;;;;;;4834541;29;20202;-94
2021/01/03 00:36:29;;;;;;;3.50;2.78;;;;;;;;;;4834192;29;20233;-93
2021/01/03 00:39:05;;;;;;;3.50;2.70;;;;;;;;;;4832536;29;20202;-91
2021/01/03 00:42:15;;;;;;;4.57;3.70;;;;;;;;;;4830835;29;20205;-92
2021/01/03 00:44:47;;;;;;;2.95;2.67;;;;;;;;;;4832311;29;20220;-93
2021/01/03 00:47:21;;;;;;;3.05;2.75;;;;;;;;;;4830731;29;20636;-93
2021/01/03 00:49:48;;;;;;;3.38;2.97;;;;;;;;;;4830606;29;20217;-93
2021/01/03 00:52:15;;;;;;;2.97;2.70;;;;;;;;;;4832453;29;20206;-93
2021/01/03 00:54:42;;;;;;;5.15;3.42;;;;;;;;;;4831053;29;20350;-94
2021/01/03 00:57:09;;;;;;;3.90;2.95;;;;;;;;;;4831018;29;20230;-93
2021/01/03 00:59:36;;;;;;;3.25;2.92;;;;;;;;;;4831649;29;20213;-93
2021/01/03 01:02:07;;;;;;;2.80;2.60;;;;;;;;;;4830973;29;20285;-94
2021/01/03 01:04:34;;;;;;;3.60;2.88;;;;;;;;;;4831878;29;20206;-94
2021/01/03 01:07:01;;;;;;;3.58;3.25;;;;;;;;;;4830482;29;20229;-94
2021/01/03 01:09:28;;;;;;;2.80;2.60;;;;;;;;;;4830815;29;20290;-93
2021/01/03 01:11:55;;;;;;;3.17;2.88;;;;;;;;;;4830941;29;20210;-93
2021/01/03 01:14:23;;;;;;;2.50;2.33;;;;;;;;;;4830283;29;20238;-94
2021/01/03 01:16:51;;;;;;;3.58;3.25;;;;;;;;;;4833602;29;20270;-94
2021/01/03 01:19:51;;;;;;;2.97;2.72;;;;;;;;;;4795260;30;20227;-93
2021/01/03 01:22:18;;;;;;;4.55;4.05;;;;;;;;;;4788523;30;20215;-92
2021/01/03 01:24:52;;;;;;;3.40;2.95;;;;;;;;;;4795065;30;20550;-93
2021/01/03 01:27:19;;;;;;;2.92;2.70;;;;;;;;;;4801271;30;20294;-91
2021/01/03 01:29:46;;;;;;;2.95;2.63;;;;;;;;;;4793659;30;20211;-88
2021/01/03 01:32:15;;;;;;;2.42;2.22;;;;;;;;;;4792495;29;20278;-92
2021/01/03 01:34:42;;;;;;;3.45;2.50;;;;;;;;;;4791273;30;20362;-93
2021/01/03 01:37:10;;;;;;;2.92;2.72;;;;;;;;;;4807000;29;20202;-92
2021/01/03 01:39:37;;;;;;;2.63;2.25;;;;;;;;;;4830290;29;20632;-92
2021/01/03 01:42:05;;;;;;;2.63;2.42;;;;;;;;;;4830107;29;20202;-91
2021/01/03 01:44:32;;;;;;;3.03;2.72;;;;;;;;;;4831633;29;20217;-92
2021/01/03 01:47:17;;;;;;;2.78;2.58;;;;;;;;;;4829824;29;20247;-90
2021/01/03 01:49:45;;;;;;;2.75;2.55;;;;;;;;;;4829383;29;20205;-91
2021/01/03 01:52:16;;;;;;;2.85;2.42;;;;;;;;;;4830213;29;20194;-91
2021/01/03 01:54:48;;;;;;;2.50;2.30;;;;;;;;;;4830175;29;20482;-91
2021/01/03 01:57:19;;;;;;;3.25;3.05;;;;;;;;;;4830301;29;20226;-91
2021/01/03 01:59:52;;;;;;;2.95;2.75;;;;;;;;;;4830099;29;20265;-90
2021/01/03 02:02:24;;;;;;;2.60;2.40;;;;;;;;;;4829930;29;20206;-92
2021/01/03 02:04:55;;;;;;;2.90;2.60;;;;;;;;;;4830384;29;20266;-90
2021/01/03 02:07:28;;;;;;;2.83;2.63;;;;;;;;;;4828819;29;20464;-93
2021/01/03 02:10:10;;;;;;;2.63;2.42;;;;;;;;;;4827360;29;20205;-89
2021/01/03 02:12:44;;;;;;;2.95;2.00;;;;;;;;;;4825073;29;20247;-90
2021/01/03 02:15:18;;;;;;;2.83;2.40;;;;;;;;;;4823740;29;20197;-90
2021/01/03 02:17:48;;;;;;;2.40;2.20;;;;;;;;;;4832148;29;20220;-90
2021/01/03 02:20:16;;;;;;;3.45;2.35;;;;;;;;;;4834887;29;20206;-91
2021/01/03 02:22:50;;;;;;;2.15;1.95;;;;;;;;;;4835045;29;20277;-92
2021/01/03 02:25:20;;;;;;;3.78;2.83;;;;;;;;;;4831139;29;20216;-91
2021/01/03 02:28:10;;;;;;;2.72;2.38;;;;;;;;;;4832992;29;20309;-91
2021/01/03 02:30:38;;;;;;;2.50;2.30;;;;;;;;;;4828541;29;20482;-91
2021/01/03 02:33:16;;;;;;;3.28;2.67;;;;;;;;;;4829413;29;20282;-91
2021/01/03 02:35:44;;;;;;;3.15;2.55;;;;;;;;;;4827823;29;20198;-92
2021/01/03 02:38:12;;;;;;;2.90;2.42;;;;;;;;;;4829237;29;20193;-91
2021/01/03 02:40:40;;;;;;;2.60;2.40;;;;;;;;;;4828813;29;20629;-90
2021/01/03 02:43:07;;;;;;;3.20;2.90;;;;;;;;;;4829420;29;20190;-90
2021/01/03 02:45:34;;;;;;;3.08;2.50;;;;;;;;;;4824627;29;20521;-90
2021/01/03 02:48:06;;;;;;;3.35;2.80;;;;;;;;;;4828794;29;20224;-90
2021/01/03 02:50:33;;;;;;;3.38;2.80;;;;;;;;;;4829179;29;20197;-90
2021/01/03 02:53:00;;;;;;;7.50;3.55;;;;;;;;;;4829412;29;20182;-90
2021/01/03 02:55:54;;;;;;;3.70;3.40;;;;;;;;;;4830252;29;20201;-93
2021/01/03 02:58:21;;;;;;;4.38;2.97;;;;;;;;;;4822209;29;20689;-93
2021/01/03 03:01:07;;;;;;;5.00;4.03;;;;;;;;;;4829041;29;20196;-94
2021/01/03 03:03:34;;;;;;;3.83;3.42;;;;;;;;;;4829340;29;20489;-92
2021/01/03 03:06:01;;;;;;;3.70;3.40;;;;;;;;;;4829331;29;20223;-93
2021/01/03 03:08:28;;;;;;;4.60;4.07;;;;;;;;;;4829358;29;20545;-95
2021/01/03 03:10:56;;;;;;;3.80;3.50;;;;;;;;;;4829341;29;20202;-93
2021/01/03 03:13:25;;;;;;;5.18;4.68;;;;;;;;;;4828872;29;20252;-91
2021/01/03 03:15:52;;;;;;;4.43;3.80;;;;;;;;;;4829225;29;20213;-92
2021/01/03 03:21:07;;;;;;;4.20;3.85;;;;;;;;;;4827362;29;20286;-93
2021/01/03 03:23:40;;;;;;;5.32;4.82;;;;;;;;;;4835863;29;20216;-92
2021/01/03 03:26:08;;;;;;;5.22;4.65;;;;;;;;;;4837568;29;20305;-93
2021/01/03 03:28:41;;;;;;;5.75;5.15;;;;;;;;;;4837953;29;20238;-94
2021/01/03 03:32:12;;;;;;;5.78;4.85;;;;;;;;;;4828894;29;20297;-94
2021/01/03 03:34:42;;;;;;;7.10;6.07;;;;;;;;;;4779332;29;20209;-95
2021/01/03 03:41:42;;;;;;;5.78;5.18;;;;;;;;;;4723868;30;20308;-94
2021/01/03 03:45:12;;;;;;;7.82;6.40;;;;;;;;;;4645999;30;20225;-94
2021/01/03 03:47:58;;;;;;;8.25;6.53;;;;;;;;;;4679748;30;20339;-94
2021/01/03 03:50:31;;;;;;;7.35;6.65;;;;;;;;;;4693930;30;20223;-94
2021/01/03 03:53:17;;;;;;;7.75;6.88;;;;;;;;;;4725281;30;20214;-95
2021/01/03 03:55:44;;;;;;;8.57;7.68;;;;;;;;;;4727619;30;20286;-92
2021/01/03 04:01:08;;;;;;;7.13;6.43;;;;;;;;;;4835790;24;20241;-94
2021/01/03 04:03:37;;;;;;;7.95;6.68;;;;;;;;;;4832271;29;20218;-94
2021/01/03 04:06:15;;;;;;;7.13;6.35;;;;;;;;;;4831616;29;20285;-94
2021/01/03 04:08:42;;;;;;;8.88;6.30;;;;;;;;;;4831775;29;20367;-93
2021/01/03 04:12:21;;;;;;;6.63;5.93;;;;;;;;;;4831562;29;20190;-95
2021/01/03 04:14:48;;;;;;;7.78;6.57;;;;;;;;;;4775080;29;20296;-96
2021/01/03 04:17:21;;;;;;;7.93;6.82;;;;;;;;;;4831617;29;20297;-92
2021/01/03 04:19:56;;;;;;;9.48;5.75;;;;;;;;;;4831655;29;20201;-93
2021/01/03 04:22:29;;;;;;;5.65;4.90;;;;;;;;;;4831753;29;20205;-93
2021/01/03 04:25:04;;;;;;;7.80;5.75;;;;;;;;;;4831630;29;20202;-94
2021/01/03 04:27:31;;;;;;;5.80;5.22;;;;;;;;;;4831168;29;20316;-92
2021/01/03 04:29:58;;;;;;;6.75;6.05;;;;;;;;;;4831339;29;20217;-93
2021/01/03 04:36:15;;;;;;;6.63;5.43;;;;;;;;;;4738944;30;20225;-93
2021/01/03 04:38:46;;;;;;;6.30;5.70;;;;;;;;;;4776123;30;20221;-94
2021/01/03 04:41:18;;;;;;;7.47;6.13;;;;;;;;;;4776118;30;20579;-93
2021/01/03 04:43:46;;;;;;;10.13;6.78;;;;;;;;;;4775947;30;20212;-92
2021/01/03 04:46:22;;;;;;;7.57;6.07;;;;;;;;;;4775606;30;20523;-92
2021/01/03 04:49:00;;;;;;;7.68;6.82;;;;;;;;;;4775638;30;20242;-94
2021/01/03 04:51:35;;;;;;;6.90;6.13;;;;;;;;;;4776241;30;20215;-94
2021/01/03 04:54:13;;;;;;;6.07;5.47;;;;;;;;;;4776155;30;20204;-93
2021/01/03 04:56:51;;;;;;;6.00;5.40;;;;;;;;;;4776192;30;20543;-94
2021/01/03 04:59:44;;;;;;;8.73;6.55;;;;;;;;;;4776081;30;20243;-94
2021/01/03 05:03:09;;;;;;;5.95;5.03;;;;;;;;;;4776469;30;20226;-95
2021/01/03 05:05:37;;;;;;;6.55;5.30;;;;;;;;;;4740354;30;20304;-94
2021/01/03 05:11:11;;;;;;;7.90;4.85;;;;;;;;;;4685882;30;20280;-94
2021/01/03 05:14:06;;;;;;;5.95;5.22;;;;;;;;;;4750217;30;20202;-93
2021/01/03 05:16:33;;;;;;;7.35;5.40;;;;;;;;;;4753064;30;20289;-92
2021/01/03 05:19:01;;;;;;;5.85;5.25;;;;;;;;;;4753400;30;20201;-93
2021/01/03 05:21:47;;;;;;;6.13;5.47;;;;;;;;;;4753793;30;20290;-94
2021/01/03 05:24:45;;;;;;;6.70;5.97;;;;;;;;;;4753370;30;20301;-93
2021/01/03 05:27:16;;;;;;;5.25;4.55;;;;;;;;;;4740520;30;20233;-94
2021/01/03 05:29:51;;;;;;;7.03;5.47;;;;;;;;;;4743613;30;20243;-94
2021/01/03 05:32:36;;;;;;;6.55;4.88;;;;;;;;;;4741371;30;20536;-94
2021/01/03 05:39:26;;;;;;;7.28;5.50;;;;;;;;;;4674829;30;20208;-95
2021/01/03 05:45:47;;;;;;;6.55;5.95;;;;;;;;;;4656376;30;20216;-94
2021/01/03 05:48:25;;;;;;;7.80;6.38;;;;;;;;;;4655812;30;20243;-92
2021/01/03 05:50:53;;;;;;;6.53;5.90;;;;;;;;;;4654240;30;20227;-90
2021/01/03 05:53:30;;;;;;;6.82;5.05;;;;;;;;;;4679707;30;20565;-93
2021/01/03 05:57:00;;;;;;;6.75;5.15;;;;;;;;;;4722202;30;20276;-93
2021/01/03 05:59:42;;;;;;;5.15;4.65;;;;;;;;;;4720006;30;20337;-93
2021/01/03 06:02:19;;;;;;;7.05;4.68;;;;;;;;;;4638863;31;20217;-94
2021/01/03 06:04:46;;;;;;;7.00;6.05;;;;;;;;;;4637656;31;20221;-93
2021/01/03 06:07:25;;;;;;;6.10;5.50;;;;;;;;;;4636211;31;20225;-92
2021/01/03 06:09:52;;;;;;;7.47;5.85;;;;;;;;;;4637243;31;20247;-93
2021/01/03 06:12:22;;;;;;;6.85;5.35;;;;;;;;;;4638266;31;20229;-94
2021/01/03 06:14:54;;;;;;;6.10;5.35;;;;;;;;;;4651984;30;20287;-94
2021/01/03 06:17:34;;;;;;;7.38;5.93;;;;;;;;;;4687506;30;20218;-94
2021/01/03 06:20:09;;;;;;;6.47;5.88;;;;;;;;;;4690142;30;20207;-94
2021/01/03 06:22:41;;;;;;;6.93;5.93;;;;;;;;;;4728682;30;20696;-94
2021/01/03 06:25:42;;;;;;;6.75;6.05;;;;;;;;;;4758600;30;20188;-94
2021/01/03 06:28:15;;;;;;;6.95;6.25;;;;;;;;;;4758112;30;20231;-93
2021/01/03 06:30:52;;;;;;;10.55;8.18;;;;;;;;;;4757483;30;20216;-93
2021/01/03 06:33:54;;;;;;;7.53;6.80;;;;;;;;;;4757309;30;20220;-93
2021/01/03 06:36:31;;;;;;;7.03;5.82;;;;;;;;;;4756794;30;20204;-93
2021/01/03 06:39:22;;;;;;;7.57;6.78;;;;;;;;;;4781570;29;20210;-92
2021/01/03 06:41:52;;;;;;;9.30;7.25;;;;;;;;;;4830114;29;20262;-92
2021/01/03 06:44:48;;;;;;;9.98;7.32;;;;;;;;;;4831274;29;20206;-93
2021/01/03 06:48:06;;;;;;;7.82;7.00;;;;;;;;;;4829307;29;20224;-92
2021/01/03 06:51:07;;;;;;;7.70;6.38;;;;;;;;;;4830300;29;20604;-92
2021/01/03 06:54:32;;;;;;;10.15;7.13;;;;;;;;;;4831444;29;20581;-92
2021/01/03 06:57:44;;;;;;;9.93;7.60;;;;;;;;;;4830504;29;20294;-92
2021/01/03 07:00:56;;;;;;;11.32;7.68;;;;;;;;;;4825255;29;20334;-92
2021/01/03 07:03:27;;;;;;;8.52;7.03;;;;;;;;;;4829781;29;20572;-93
2021/01/03 07:06:11;;;;;;;9.27;8.27;;;;;;;;;;4831972;29;20208;-93
2021/01/03 07:09:06;;;;;;;7.95;7.15;;;;;;;;;;4830045;29;20293;-95
2021/01/03 07:11:56;;;;;;;8.85;6.50;;;;;;;;;;4824993;29;20584;-93
2021/01/03 07:14:56;;;;;;;8.93;6.35;;;;;;;;;;4833092;29;20506;-92
2021/01/03 07:18:21;;;;;;;8.57;7.50;;;;;;;;;;4832537;29;20186;-94
2021/01/03 07:21:03;;;;;;;8.45;6.18;;;;;;;;;;4832446;29;20213;-92
2021/01/03 07:23:37;;;;;;;10.35;7.75;;;;;;;;;;4832820;29;20205;-91
2021/01/03 07:26:24;;;;;;;8.30;6.85;;;;;;;;;;4832778;29;20220;-93
2021/01/03 07:29:01;;;;;;;7.60;6.20;;;;;;;;;;4832209;29;20237;-93
2021/01/03 07:31:51;;;;;;;7.10;6.25;;;;;;;;;;4832715;29;20231;-93
2021/01/03 07:34:51;;;;;;;7.45;6.35;;;;;;;;;;4832387;29;20205;-93
2021/01/03 07:37:24;;;;;;;7.85;5.40;;;;;;;;;;4832238;29;20273;-92
2021/01/03 07:40:03;;;;;;;6.50;5.82;;;;;;;;;;4832586;29;20273;-92
2021/01/03 07:42:32;;;;;;;7.88;5.43;;;;;;;;;;4832555;29;20214;-92
2021/01/03 07:45:21;;;;;;;8.23;6.55;;;;;;;;;;4832498;29;20228;-92
2021/01/03 07:48:11;;;;;;;6.70;5.78;;;;;;;;;;4832331;29;20210;-92
2021/01/03 07:50:40;;;;;;;8.27;5.97;;;;;;;;;;4831912;29;20316;-93
2021/01/03 07:53:34;;;;;;;8.00;5.22;;;;;;;;;;4832314;29;20258;-94
2021/01/03 07:56:22;;;;;;;6.53;5.60;;;;;;;;;;4832300;29;20213;-93
2021/01/03 07:58:54;;;;;;;6.65;5.63;;;;;;;;;;4831463;29;20233;-94
2021/01/03 08:01:24;;;;;;;6.95;5.47;;;;;;;;;;4831858;29;20220;-94
2021/01/03 08:03:51;;;;;;;8.02;5.20;;;;;;;;;;4831771;29;20210;-92
2021/01/03 08:06:21;;;;;;;6.85;5.35;;;;;;;;;;4831693;29;20251;-91
2021/01/03 08:09:28;;;;;;;5.65;4.97;;;;;;;;;;4831770;29;20209;-93
2021/01/03 08:12:06;;;;;;;6.53;5.28;;;;;;;;;;4827487;29;20581;-93
2021/01/03 08:14:40;;;;;;;4.97;4.47;;;;;;;;;;4831709;29;20205;-92
2021/01/03 08:17:08;;;;;;;5.95;5.38;;;;;;;;;;4831740;29;20189;-93
2021/01/03 08:19:35;;;;;;;6.53;5.32;;;;;;;;;;4831593;29;20206;-93
2021/01/03 08:22:02;;;;;;;5.85;4.47;;;;;;;;;;4831442;29;20567;-93
2021/01/03 08:24:31;;;;;;;5.05;4.35;;;;;;;;;;4830517;29;20209;-92
2021/01/03 08:27:15;;;;;;;5.13;4.63;;;;;;;;;;4831622;29;20206;-92
2021/01/03 08:29:45;;;;;;;5.20;4.65;;;;;;;;;;4831421;29;20214;-93
2021/01/03 08:32:17;;;;;;;5.32;4.80;;;;;;;;;;4831564;29;20233;-95
2021/01/03 08:34:58;;;;;;;7.60;4.85;;;;;;;;;;4831546;29;20206;-93
2021/01/03 08:37:35;;;;;;;5.72;4.40;;;;;;;;;;4831513;29;20213;-93
2021/01/03 08:40:57;;;;;;;6.60;4.90;;;;;;;;;;4832226;29;20217;-94
2021/01/03 08:43:29;;;;;;;5.32;4.22;;;;;;;;;;4829197;29;20297;-93
2021/01/03 08:46:02;;;;;;;6.55;4.72;;;;;;;;;;4831603;29;20210;-94
2021/01/03 08:48:30;;;;;;;5.03;4.60;;;;;;;;;;4831120;29;20201;-91
2021/01/03 08:51:08;;;;;;;4.93;4.00;;;;;;;;;;4830937;29;20229;-93
2021/01/03 08:53:36;;;;;;;4.25;3.85;;;;;;;;;;4831032;29;20213;-92
2021/01/03 08:56:08;;;;;;;4.38;4.03;;;;;;;;;;4830762;29;20595;-95
2021/01/03 08:58:39;;;;;;;4.43;3.97;;;;;;;;;;4830990;29;20233;-94
2021/01/03 09:01:14;;;;;;;4.30;3.75;;;;;;;;;;4830667;29;20234;-94
2021/01/03 09:03:42;;;;;;;4.43;3.58;;;;;;;;;;4831232;29;20230;-93
2021/01/03 09:06:10;;;;;;;4.75;4.28;;;;;;;;;;4831138;29;20206;-92
2021/01/03 09:08:41;;;;;;;4.25;3.65;;;;;;;;;;4830857;29;20202;-93
2021/01/03 09:11:23;;;;;;;3.67;3.33;;;;;;;;;;4830453;29;20229;-94
2021/01/03 09:14:13;;;;;;;4.57;4.15;;;;;;;;;;4830753;29;20225;-93
2021/01/03 09:16:52;;;;;;;4.70;3.85;;;;;;;;;;4817448;29;20227;-93
2021/01/03 09:19:26;;;;;;;3.95;2.97;;;;;;;;;;4830556;29;20194;-91
2021/01/03 09:21:56;;;;;;;3.20;2.90;;;;;;;;;;4830448;29;20183;-91
2021/01/03 09:24:27;;;;;;;3.65;3.35;;;;;;;;;;4830416;29;20277;-92
2021/01/03 09:26:56;;;;;;;3.58;3.25;;;;;;;;;;4830513;29;20206;-94
2021/01/03 09:29:28;;;;;;;3.67;3.38;;;;;;;;;;4830811;29;20186;-91
2021/01/03 09:32:06;;;;;;;3.75;3.15;;;;;;;;;;4830408;29;20225;-91
2021/01/03 09:34:48;;;;;;;3.03;2.83;;;;;;;;;;4830665;29;20470;-89
2021/01/03 09:37:24;;;;;;;4.00;2.63;;;;;;;;;;4830067;29;20624;-91
2021/01/03 09:40:26;;;;;;;3.17;2.88;;;;;;;;;;4828982;29;20240;-92
2021/01/03 09:43:15;;;;;;;3.35;3.05;;;;;;;;;;4829501;29;20189;-90
2021/01/03 09:45:56;;;;;;;4.15;3.63;;;;;;;;;;4828090;29;20190;-93
2021/01/03 09:48:37;;;;;;;3.58;3.10;;;;;;;;;;4828100;29;20194;-90
2021/01/03 09:51:31;;;;;;;3.15;2.85;;;;;;;;;;4828042;29;20237;-90
2021/01/03 09:54:07;;;;;;;3.08;2.75;;;;;;;;;;4825140;29;20230;-91
2021/01/03 09:56:36;;;;;;;2.67;2.47;;;;;;;;;;4829861;29;20223;-91
2021/01/03 09:59:11;;;;;;;3.13;2.83;;;;;;;;;;4829033;29;20222;-90
2021/01/03 10:01:40;;;;;;;3.92;2.92;;;;;;;;;;4826997;29;20210;-92
2021/01/03 10:04:25;;;;;;;3.45;2.60;;;;;;;;;;4829718;29;20362;-91
2021/01/03 10:06:54;;;;;;;2.95;2.63;;;;;;;;;;4830236;29;20281;-93
2021/01/03 10:09:33;;;;;;;3.58;3.28;;;;;;;;;;4829772;29;20190;-89
2021/01/03 10:12:16;;;;;;;3.95;2.80;;;;;;;;;;4830197;29;20210;-89
2021/01/03 10:14:43;;;;;;;3.33;3.03;;;;;;;;;;4829855;29;20276;-90
2021/01/03 10:17:17;;;;;;;3.13;2.55;;;;;;;;;;4830739;29;20202;-94
2021/01/03 10:19:48;;;;;;;3.28;2.97;;;;;;;;;;4831745;29;20189;-95
2021/01/03 10:22:44;;;;;;;2.88;2.65;;;;;;;;;;4833450;29;20301;-93
2021/01/03 10:25:16;;;;;;;2.72;2.53;;;;;;;;;;4831834;29;20227;-93
2021/01/03 10:28:03;;;;;;;3.65;3.08;;;;;;;;;;4829859;29;20230;-90
2021/01/03 10:30:30;;;;;;;3.42;3.13;;;;;;;;;;4830275;29;20498;-93
2021/01/03 10:32:58;;;;;;;4.93;2.92;;;;;;;;;;4829403;29;20202;-94
2021/01/03 10:35:28;;;;;;;4.15;3.10;;;;;;;;;;4829255;29;20221;-93
2021/01/03 10:37:55;;;;;;;3.17;2.88;;;;;;;;;;4827100;29;20202;-91
2021/01/03 10:40:23;;;;;;;3.13;2.83;;;;;;;;;;4829171;29;20210;-93
2021/01/03 10:42:53;;;;;;;2.55;2.35;;;;;;;;;;4828995;29;20663;-94
2021/01/03 10:45:24;;;;;;;2.30;2.10;;;;;;;;;;4829287;29;20210;-93
2021/01/03 10:47:52;;;;;;;3.13;2.78;;;;;;;;;;4828894;29;20198;-94
2021/01/03 10:50:22;;;;;;;2.67;2.13;;;;;;;;;;4829412;29;20212;-91
2021/01/03 10:52:49;;;;;;;3.25;2.28;;;;;;;;;;4828654;29;20335;-93
2021/01/03 10:55:20;;;;;;;10.45;6.28;;;;;;;;;;4829008;29;20324;-91
2021/01/03 10:57:47;;;;;;;2.67;2.47;;;;;;;;;;4782932;29;20221;-91
2021/01/03 11:00:16;;;;;;;2.47;2.28;;;;;;;;;;4828631;29;20324;-92
2021/01/03 11:02:43;;;;;;;3.00;2.75;;;;;;;;;;4829013;29;20194;-92
2021/01/03 11:05:11;;;;;;;2.70;2.03;;;;;;;;;;4828268;29;20202;-92
2021/01/03 11:07:40;;;;;;;2.53;2.33;;;;;;;;;;4826238;29;20229;-91
2021/01/03 11:10:10;;;;;;;3.20;2.55;;;;;;;;;;4828967;29;20292;-91
2021/01/03 11:12:37;;;;;;;2.50;2.30;;;;;;;;;;4828671;29;20187;-92
2021/01/03 11:15:06;;;;;;;2.35;2.00;;;;;;;;;;4828883;29;20537;-93
2021/01/03 11:17:33;;;;;;;2.60;2.40;;;;;;;;;;4829154;29;21257;-93
2021/01/03 11:20:00;;;;;;;2.22;2.03;;;;;;;;;;4827568;29;20438;-92
2021/01/03 11:22:27;;;;;;;2.05;1.85;;;;;;;;;;4832227;29;20285;-94
2021/01/03 11:25:09;;;;;;;1.95;1.80;;;;;;;;;;4835511;29;20186;-94
2021/01/03 11:27:36;;;;;;;1.85;1.75;;;;;;;;;;4842867;29;20256;-90
2021/01/03 11:30:06;;;;;;;3.25;2.40;;;;;;;;;;4840638;29;20220;-93
2021/01/03 11:32:33;;;;;;;2.50;2.03;;;;;;;;;;4838717;29;20225;-91
2021/01/03 11:35:00;;;;;;;2.55;2.10;;;;;;;;;;4829753;29;20224;-93
2021/01/03 11:37:32;;;;;;;2.50;2.20;;;;;;;;;;4828407;29;20218;-92
2021/01/03 11:40:04;;;;;;;2.38;1.83;;;;;;;;;;4831606;29;20263;-91
2021/01/03 11:42:52;;;;;;;;;;;;;;;;;;;;;
2021/01/03 11:48:09;;;;;;;1.73;1.52;;;;;;;;;;4809921;29;20500;-92
2021/01/03 11:50:38;;;;;;;2.20;2.00;;;;;;;;;;4814531;29;20234;-91
2021/01/03 11:53:05;;;;;;;2.17;1.98;;;;;;;;;;4813871;29;20572;-93
2021/01/03 11:55:34;;;;;;;2.20;2.00;;;;;;;;;;4813389;29;20309;-94
2021/01/03 11:58:01;;;;;;;2.53;2.10;;;;;;;;;;4811836;29;20315;-94
2021/01/03 12:00:28;;;;;;;2.55;2.17;;;;;;;;;;4815828;29;20254;-88
2021/01/03 12:02:55;;;;;;;2.20;2.00;;;;;;;;;;4813493;29;20622;-91
2021/01/03 12:05:22;;;;;;;2.15;1.98;;;;;;;;;;4813566;29;20490;-86
2021/01/03 12:07:49;;;;;;;1.90;1.80;;;;;;;;;;4813777;29;20209;-86
2021/01/03 12:10:16;;;;;;;3.50;2.42;;;;;;;;;;4813620;29;20195;-87
2021/01/03 12:12:45;;;;;;;2.67;2.47;;;;;;;;;;4833908;29;20193;-85
2021/01/03 12:15:13;;;;;;;2.40;2.20;;;;;;;;;;4830790;29;20205;-87
2021/01/03 12:17:40;;;;;;;2.97;2.72;;;;;;;;;;4831189;29;20260;-87
2021/01/03 12:20:08;;;;;;;1.85;1.75;;;;;;;;;;4831075;29;20221;-88
2021/01/03 12:22:35;;;;;;;2.03;1.70;;;;;;;;;;4831314;29;20205;-87
2021/01/03 12:25:04;;;;;;;1.83;1.73;;;;;;;;;;4832434;29;20194;-86
2021/01/03 12:27:31;;;;;;;3.17;2.25;;;;;;;;;;4836676;29;20225;-86
2021/01/03 12:29:59;;;;;;;2.30;2.10;;;;;;;;;;4840699;29;20212;-85
2021/01/03 12:32:26;;;;;;;2.00;1.80;;;;;;;;;;4841189;29;20240;-87
2021/01/03 12:34:53;;;;;;;3.05;2.58;;;;;;;;;;4846307;29;20490;-88
2021/01/03 12:37:22;;;;;;;3.10;2.58;;;;;;;;;;4784954;29;20210;-87
2021/01/03 12:39:50;;;;;;;3.03;2.42;;;;;;;;;;4830940;29;20194;-90
2021/01/03 12:42:20;;;;;;;2.65;2.45;;;;;;;;;;4831580;29;20205;-89
2021/01/03 12:44:48;;;;;;;2.55;2.35;;;;;;;;;;4831848;29;20198;-89
2021/01/03 12:47:17;;;;;;;2.38;2.17;;;;;;;;;;4822021;29;20289;-90
2021/01/03 12:49:44;;;;;;;2.20;2.00;;;;;;;;;;4830922;29;20210;-90
2021/01/03 12:52:11;;;;;;;3.10;2.78;;;;;;;;;;4831209;29;20391;-90
2021/01/03 12:54:38;;;;;;;3.28;3.00;;;;;;;;;;4813160;29;20284;-88
2021/01/03 12:57:06;;;;;;;2.63;2.42;;;;;;;;;;4812904;29;20195;-91
2021/01/03 12:59:33;;;;;;;3.40;2.25;;;;;;;;;;4812783;29;20542;-91
2021/01/03 13:02:00;;;;;;;2.63;2.33;;;;;;;;;;4818796;29;20532;-90
2021/01/03 13:04:28;;;;;;;3.00;2.47;;;;;;;;;;4830805;29;20210;-89
2021/01/03 13:06:55;;;;;;;4.15;3.42;;;;;;;;;;4830932;29;20194;-92
2021/01/03 13:09:23;;;;;;;3.33;3.03;;;;;;;;;;4830425;29;20637;-91
2021/01/03 13:11:51;;;;;;;3.75;2.13;;;;;;;;;;4831361;29;20260;-90
2021/01/03 13:14:19;;;;;;;2.47;2.20;;;;;;;;;;4830884;29;20213;-90
2021/01/03 13:16:46;;;;;;;3.83;2.33;;;;;;;;;;4831049;29;20206;-89
2021/01/03 13:19:14;;;;;;;3.50;2.47;;;;;;;;;;4831047;29;20601;-88
2021/01/03 13:21:46;;;;;;;5.00;2.78;;;;;;;;;;4823289;29;20202;-90
2021/01/03 13:24:13;;;;;;;3.33;3.00;;;;;;;;;;4830342;29;20214;-85
2021/01/03 13:26:40;;;;;;;4.00;2.60;;;;;;;;;;4829267;29;20225;-85
2021/01/03 13:29:07;;;;;;;4.03;2.60;;;;;;;;;;4829933;29;20218;-87
2021/01/03 13:31:34;;;;;;;3.50;3.20;;;;;;;;;;4830134;29;20228;-85
2021/01/03 13:34:00;;;;;;;7.85;2.90;;;;;;;;;;4916475;24;20252;-80
2021/01/03 13:36:28;;;;;;;2.85;2.65;;;;;;;;;;4823458;29;20278;-80
2021/01/03 13:38:57;;;;;;;3.92;2.78;;;;;;;;;;4829132;29;20221;-81
2021/01/03 13:41:26;;;;;;;2.83;1.95;;;;;;;;;;4829248;29;20214;-81
2021/01/03 13:43:53;;;;;;;2.50;2.05;;;;;;;;;;4829853;29;20312;-81
2021/01/03 13:46:20;;;;;;;3.78;2.65;;;;;;;;;;4829247;29;20522;-81
2021/01/03 13:48:47;;;;;;;3.13;2.80;;;;;;;;;;4829412;29;20213;-81
2021/01/03 13:51:14;;;;;;;2.42;2.22;;;;;;;;;;4813930;29;20222;-80
2021/01/03 13:53:42;;;;;;;3.15;2.47;;;;;;;;;;4827910;29;20290;-81
2021/01/03 13:56:09;;;;;;;3.20;2.88;;;;;;;;;;4828913;29;20199;-81
2021/01/03 13:58:40;;;;;;;4.53;3.30;;;;;;;;;;4829112;29;20196;-80
2021/01/03 14:01:08;;;;;;;2.60;2.40;;;;;;;;;;4828746;29;20280;-80
2021/01/03 14:03:35;;;;;;;3.53;3.15;;;;;;;;;;4828200;29;20238;-80
2021/01/03 14:06:03;;;;;;;3.05;2.80;;;;;;;;;;4823235;29;20201;-80
2021/01/03 14:08:29;;;;;;;3.90;3.13;;;;;;;;;;4810195;29;20211;-82
2021/01/03 14:10:56;;;;;;;3.65;2.88;;;;;;;;;;4809742;29;20186;-80
2021/01/03 14:13:24;;;;;;;3.20;2.88;;;;;;;;;;4815101;29;20217;-81
2021/01/03 14:15:51;;;;;;;3.05;2.75;;;;;;;;;;4821987;29;20210;-81
2021/01/03 14:18:18;;;;;;;4.93;3.10;;;;;;;;;;4828338;29;20221;-80
2021/01/03 14:20:45;;;;;;;5.22;4.47;;;;;;;;;;4827971;29;20190;-81
2021/01/03 14:23:12;;;;;;;5.20;4.00;;;;;;;;;;4827925;29;20254;-80
2021/01/03 14:25:39;;;;;;;4.05;3.65;;;;;;;;;;4828115;29;20233;-81
2021/01/03 14:28:06;;;;;;;3.55;3.25;;;;;;;;;;4827662;29;20202;-81
2021/01/03 14:30:34;;;;;;;6.35;4.30;;;;;;;;;;4828507;29;20201;-80
2021/01/03 14:33:04;;;;;;;5.43;4.13;;;;;;;;;;4824398;29;20242;-80
2021/01/03 14:35:33;;;;;;;4.53;4.05;;;;;;;;;;4820072;29;20568;-80
2021/01/03 14:38:03;;;;;;;3.47;3.05;;;;;;;;;;4827909;29;20186;-80
2021/01/03 14:40:34;;;;;;;4.05;3.75;;;;;;;;;;4826877;29;20206;-81
2021/01/03 14:43:23;;;;;;;6.40;5.15;;;;;;;;;;4809205;29;20561;-82
2021/01/03 14:46:08;;;;;;;3.63;3.22;;;;;;;;;;4811866;29;20202;-81
2021/01/03 14:49:05;;;;;;;3.08;2.78;;;;;;;;;;4807019;29;20247;-81
2021/01/03 14:51:46;;;;;;;3.08;2.83;;;;;;;;;;4735394;30;20790;-81
2021/01/03 14:54:41;;;;;;;2.53;2.20;;;;;;;;;;4734887;30;20202;-81
2021/01/03 14:57:22;;;;;;;3.58;3.25;;;;;;;;;;4735117;30;20861;-81
2021/01/03 14:59:57;;;;;;;3.00;2.17;;;;;;;;;;4737077;30;20288;-83
2021/01/03 15:03:10;;;;;;;2.55;2.20;;;;;;;;;;4736322;30;20250;-82
2021/01/03 15:05:39;;;;;;;2.85;2.30;;;;;;;;;;4736936;30;20217;-83
2021/01/03 15:08:12;;;;;;;2.60;2.38;;;;;;;;;;4736800;30;20193;-84
2021/01/03 15:10:39;;;;;;;3.75;3.00;;;;;;;;;;4737190;30;20217;-84
2021/01/03 15:13:06;;;;;;;4.13;3.33;;;;;;;;;;4737409;30;20282;-85
2021/01/03 15:15:50;;;;;;;2.92;2.72;;;;;;;;;;4737273;30;20205;-82
2021/01/03 15:18:25;;;;;;;2.30;2.10;;;;;;;;;;4737137;30;20229;-83
2021/01/03 15:20:53;;;;;;;3.47;2.50;;;;;;;;;;4737136;30;20579;-83
2021/01/03 15:23:25;;;;;;;2.92;2.50;;;;;;;;;;4736956;30;20201;-82
2021/01/03 15:25:56;;;;;;;2.90;2.67;;;;;;;;;;4736869;30;20216;-82
2021/01/03 15:28:28;;;;;;;2.97;2.67;;;;;;;;;;4767410;29;20607;-83
2021/01/03 15:30:58;;;;;;;4.00;2.97;;;;;;;;;;4810335;29;20190;-82
2021/01/03 15:33:28;;;;;;;2.83;2.60;;;;;;;;;;4811895;29;20345;-82
2021/01/03 15:35:58;;;;;;;2.30;2.10;;;;;;;;;;4813132;29;20191;-83
2021/01/03 15:38:25;;;;;;;2.30;2.10;;;;;;;;;;4813445;29;20191;-83
2021/01/03 15:40:57;;;;;;;2.67;2.47;;;;;;;;;;4813363;29;20199;-83
2021/01/03 15:43:34;;;;;;;2.47;2.25;;;;;;;;;;4813192;29;20198;-82
2021/01/03 15:46:05;;;;;;;2.75;2.55;;;;;;;;;;4813192;29;20267;-82
2021/01/03 15:48:36;;;;;;;3.67;1.92;;;;;;;;;;4813153;29;20261;-83
2021/01/03 15:51:03;;;;;;;2.65;2.45;;;;;;;;;;4813714;29;20203;-85
2021/01/03 15:53:32;;;;;;;3.13;2.83;;;;;;;;;;4813356;29;20305;-83
2021/01/03 15:56:00;;;;;;;2.65;2.45;;;;;;;;;;4813036;29;20199;-82
2021/01/03 15:58:27;;;;;;;2.95;2.67;;;;;;;;;;4812532;29;20217;-82
2021/01/03 16:00:55;;;;;;;2.67;2.47;;;;;;;;;;4767243;29;20642;-84
2021/01/03 16:03:22;;;;;;;2.50;2.30;;;;;;;;;;4812908;29;20525;-81